Terminal Aerodrome Forecast
Issued by NWS Cleveland, OH

Home | Current Version | Previous Version | Text Only | Print | Product List | Glossary Off
Versions: 1 2 3 4 5 6 7 8 9 10 11 12 13 14 15

000
FTUS41 KCLE 310535
TAFCAK
TAF
KCAK 310535Z 3106/0106 26006KT P6SM SCT080
     FM311600 26012G20KT P6SM SCT060
     FM010100 26008KT P6SM VCTS SCT060CB BKN150
     FM010400 24006KT P6SM SKC=

USA.gov is the U.S. government's official web portal to all federal, state and local government web resources and services.